Time;durP1;ratioP1;P1;durP2;ratioP2;P2;SDS_P1;SDS_P2;PMS_P1;PMS_P2;Temp;Humidity;BMP_temperature;BMP_pressure;BME280_temperature;BME280_humidity;BME280_pressure;Samples;Min_cycle;Max_cycle;Signal;HPM_P1;HPM_P2
2020/12/22 00:01:13;150258.00;0.50;260.25;0.00;0.00;0.62;;;;;13.30;3.10;;;;;;2289137;60;1743;-86
2020/12/22 00:03:39;0.00;0.00;0.62;0.00;0.00;0.62;;;;;13.40;2.50;;;;;;2289219;60;967;-84
2020/12/22 00:06:06;154598.00;0.52;267.73;0.00;0.00;0.62;;;;;12.90;4.40;;;;;;2289038;60;2014;-86
2020/12/22 00:08:32;138000.00;0.46;239.12;0.00;0.00;0.62;;;;;12.80;4.70;;;;;;2289163;60;1706;-85
2020/12/22 00:10:59;82757.00;0.28;143.80;0.00;0.00;0.62;;;;;12.60;5.50;;;;;;2289193;60;984;-84
2020/12/22 00:13:26;120185.00;0.40;208.40;0.00;0.00;0.62;;;;;12.60;5.80;;;;;;2289122;60;1714;-85
2020/12/22 00:15:53;155800.00;0.52;269.80;0.00;0.00;0.62;;;;;13.00;4.20;;;;;;2289099;60;1573;-85
2020/12/22 00:18:20;100547.00;0.34;174.52;0.00;0.00;0.62;;;;;12.90;4.50;;;;;;2289102;60;937;-86
2020/12/22 00:20:47;156958.00;0.52;271.80;0.00;0.00;0.62;;;;;13.20;3.50;;;;;;2289089;60;1749;-87
2020/12/22 00:23:13;71424.00;0.24;124.22;0.00;0.00;0.62;;;;;13.00;4.30;;;;;;2289167;60;935;-86
2020/12/22 00:25:43;166170.00;0.55;287.67;0.00;0.00;0.62;;;;;13.00;4.50;;;;;;2289052;60;2008;-86
2020/12/22 00:28:10;115081.00;0.38;199.60;0.00;0.00;0.62;;;;;13.30;3.40;;;;;;2289099;60;966;-86
2020/12/22 00:30:36;164604.00;0.55;284.97;0.00;0.00;0.62;;;;;13.40;2.90;;;;;;2289080;60;993;-86
2020/12/22 00:33:05;208900.00;0.70;361.24;0.00;0.00;0.62;;;;;13.30;3.70;;;;;;2289025;60;1733;-87
2020/12/22 00:35:32;138361.00;0.46;239.75;0.00;0.00;0.62;;;;;13.20;3.90;;;;;;2289065;60;1565;-86
2020/12/22 00:37:58;87434.00;0.29;151.88;0.00;0.00;0.62;;;;;13.20;4.40;;;;;;2289108;60;1440;-87
2020/12/22 00:40:26;17718.00;0.06;31.32;0.00;0.00;0.62;;;;;13.20;4.40;;;;;;2289083;60;1204;-85
2020/12/22 00:42:53;169862.00;0.57;294.03;0.00;0.00;0.62;;;;;12.90;5.70;;;;;;2289096;60;1040;-85
2020/12/22 00:45:21;172682.00;0.58;298.89;0.00;0.00;0.62;;;;;12.70;6.30;;;;;;2289066;60;2004;-85
2020/12/22 00:47:47;186486.00;0.62;322.66;0.00;0.00;0.62;;;;;12.90;5.60;;;;;;2289002;60;1752;-85
2020/12/22 00:50:15;120100.00;0.40;208.25;0.00;0.00;0.62;;;;;12.90;5.20;;;;;;2289120;60;908;-86
2020/12/22 00:52:42;142531.00;0.48;246.93;0.00;0.00;0.62;;;;;12.80;5.90;;;;;;2289013;60;1741;-87
2020/12/22 00:55:08;139000.00;0.46;240.85;0.00;0.00;0.62;;;;;12.80;5.70;;;;;;2289083;60;920;-87
2020/12/22 00:57:35;105367.00;0.35;182.84;0.00;0.00;0.62;;;;;12.80;6.00;;;;;;2288934;60;1441;-86
2020/12/22 01:00:01;120671.00;0.40;209.24;0.00;0.00;0.62;;;;;12.60;6.60;;;;;;2289003;60;1026;-86
2020/12/22 01:02:28;36224.00;0.12;63.35;0.00;0.00;0.62;;;;;12.70;6.60;;;;;;2289039;60;1004;-85
2020/12/22 01:04:55;262630.00;0.88;453.67;15346.00;0.05;27.21;;;;;12.80;6.50;;;;;;2288959;60;1919;-86
2020/12/22 01:07:22;126386.00;0.42;219.10;0.00;0.00;0.62;;;;;12.90;6.20;;;;;;2288959;60;1655;-86
2020/12/22 01:09:49;143136.00;0.48;247.98;0.00;0.00;0.62;;;;;13.10;5.70;;;;;;2288944;60;1592;-85
2020/12/22 01:12:15;154510.00;0.52;267.58;0.00;0.00;0.62;;;;;13.40;3.80;;;;;;2288867;60;1696;-86
2020/12/22 01:14:44;159557.00;0.53;276.28;0.00;0.00;0.62;;;;;13.40;4.40;;;;;;2288912;60;1788;-86
2020/12/22 01:17:11;20940.00;0.07;36.90;0.00;0.00;0.62;;;;;13.50;4.10;;;;;;2288934;60;1401;-85
2020/12/22 01:19:37;114900.00;0.38;199.28;0.00;0.00;0.62;;;;;13.60;3.30;;;;;;2288926;60;1043;-87
2020/12/22 01:22:04;168287.00;0.56;291.32;0.00;0.00;0.62;;;;;13.50;3.70;;;;;;2288894;60;1612;-86
2020/12/22 01:24:31;130520.00;0.44;226.23;0.00;0.00;0.62;;;;;13.80;2.90;;;;;;2288858;60;1994;-86
2020/12/22 01:26:58;214966.00;0.72;371.68;10141.00;0.03;18.19;;;;;14.10;1.90;;;;;;2288871;60;1340;-86
2020/12/22 01:29:24;250191.00;0.83;432.28;0.00;0.00;0.62;;;;;13.90;1.90;;;;;;2288864;60;1685;-86
2020/12/22 01:31:51;107706.00;0.36;186.87;0.00;0.00;0.62;;;;;13.70;1.70;;;;;;2288954;60;991;-83
2020/12/22 01:34:17;116174.00;0.39;201.48;0.00;0.00;0.62;;;;;13.50;3.90;;;;;;2288857;60;1696;-85
2020/12/22 01:36:44;169756.00;0.57;293.85;0.00;0.00;0.62;;;;;13.50;3.60;;;;;;2288870;60;1409;-85
2020/12/22 01:39:11;573408.00;1.91;988.33;156751.00;0.52;271.44;;;;;13.40;4.40;;;;;;2288907;60;1014;-85
2020/12/22 01:41:38;178433.00;0.59;308.79;0.00;0.00;0.62;;;;;13.00;5.30;;;;;;2288847;60;1611;-84
2020/12/22 01:44:07;134209.00;0.45;232.59;0.00;0.00;0.62;;;;;12.90;5.70;;;;;;2288781;60;1921;-85
2020/12/22 01:46:38;76923.00;0.26;133.72;0.00;0.00;0.62;;;;;13.00;5.70;;;;;;2288787;60;1683;-84
2020/12/22 01:49:10;48204.00;0.16;84.08;0.00;0.00;0.62;;;;;13.00;5.90;;;;;;2288872;60;961;-84
2020/12/22 01:51:37;182381.00;0.61;315.59;0.00;0.00;0.62;;;;;13.10;5.60;;;;;;2288844;60;1942;-85
2020/12/22 01:54:03;158217.00;0.53;273.97;0.00;0.00;0.62;;;;;13.20;4.90;;;;;;2288800;60;1616;-84
2020/12/22 01:56:31;171497.00;0.57;296.85;36142.00;0.12;63.21;;;;;13.20;5.60;;;;;;2288796;60;1695;-84
2020/12/22 01:58:58;47336.00;0.16;82.58;0.00;0.00;0.62;;;;;13.30;4.70;;;;;;2288844;60;1125;-84
2020/12/22 02:01:25;0.00;0.00;0.62;0.00;0.00;0.62;;;;;13.50;4.50;;;;;;2288834;60;1156;-83
2020/12/22 02:03:52;0.00;0.00;0.62;0.00;0.00;0.62;;;;;13.60;3.70;;;;;;2288854;60;1066;-84
2020/12/22 02:06:18;0.00;0.00;0.62;0.00;0.00;0.62;;;;;13.40;4.30;;;;;;2288762;60;1938;-83
2020/12/22 02:08:44;0.00;0.00;0.62;0.00;0.00;0.62;;;;;13.30;4.90;;;;;;2288602;60;1102;-83
2020/12/22 02:11:11;22588.00;0.08;39.75;0.00;0.00;0.62;;;;;13.20;5.30;;;;;;2288805;60;1134;-83
2020/12/22 02:13:37;0.00;0.00;0.62;0.00;0.00;0.62;;;;;13.10;5.70;;;;;;2288773;60;1063;-84
2020/12/22 02:16:05;24125.00;0.08;42.41;0.00;0.00;0.62;;;;;13.30;5.40;;;;;;2288731;60;1342;-85
2020/12/22 02:18:32;11679.00;0.04;20.86;0.00;0.00;0.62;;;;;13.50;4.40;;;;;;2288725;60;941;-85
2020/12/22 02:21:03;0.00;0.00;0.62;0.00;0.00;0.62;;;;;13.40;4.70;;;;;;2288774;60;1196;-83
2020/12/22 02:23:30;0.00;0.00;0.62;0.00;0.00;0.62;;;;;13.50;4.60;;;;;;2288760;60;1128;-85
2020/12/22 02:25:56;18409.00;0.06;32.51;0.00;0.00;0.62;;;;;13.80;3.50;;;;;;2288713;60;1931;-83
2020/12/22 02:28:22;0.00;0.00;0.62;0.00;0.00;0.62;;;;;13.50;4.50;;;;;;2288743;60;1130;-83
2020/12/22 02:30:49;0.00;0.00;0.62;0.00;0.00;0.62;;;;;13.40;5.00;;;;;;2276005;61;1053;-82
2020/12/22 02:33:16;0.00;0.00;0.62;0.00;0.00;0.62;;;;;13.40;5.30;;;;;;2276045;61;1073;-85
2020/12/22 02:35:42;36037.00;0.12;63.03;0.00;0.00;0.62;;;;;13.70;4.00;;;;;;2276032;61;1372;-85
2020/12/22 02:38:09;57559.00;0.19;100.26;0.00;0.00;0.62;;;;;14.00;2.70;;;;;;2276020;61;1004;-85
2020/12/22 02:40:36;92768.00;0.31;161.09;23760.00;0.08;41.78;;;;;14.40;2.00;;;;;;2276039;61;1150;-86
2020/12/22 02:43:09;8855.00;0.03;15.97;0.00;0.00;0.62;;;;;14.50;1.40;;;;;;2276019;61;1190;-85
2020/12/22 02:45:36;0.00;0.00;0.62;0.00;0.00;0.62;;;;;14.50;1.20;;;;;;2275973;61;1980;-86
2020/12/22 02:48:03;85386.00;0.28;148.34;0.00;0.00;0.62;;;;;14.40;1.10;;;;;;2278080;60;1036;-85
2020/12/22 02:50:30;48062.00;0.16;83.83;0.00;0.00;0.62;;;;;14.30;1.70;;;;;;2288689;60;1006;-86
2020/12/22 02:52:56;31571.00;0.11;55.30;0.00;0.00;0.62;;;;;14.30;1.60;;;;;;2288637;60;1768;-85
2020/12/22 02:55:24;0.00;0.00;0.62;0.00;0.00;0.62;;;;;14.20;1.90;;;;;;2288625;60;1647;-86
2020/12/22 02:57:50;1469.00;0.00;3.17;0.00;0.00;0.62;;;;;14.50;1.00;;;;;;2288630;60;1200;-85
2020/12/22 03:00:17;0.00;0.00;0.62;0.00;0.00;0.62;;;;;14.70;1.00;;;;;;2288649;60;1177;-85
2020/12/22 03:02:43;0.00;0.00;0.62;0.00;0.00;0.62;;;;;14.70;1.00;;;;;;2288641;60;1150;-85
2020/12/22 03:05:10;0.00;0.00;0.62;0.00;0.00;0.62;;;;;15.00;1.00;;;;;;2288622;60;1988;-85
2020/12/22 03:07:36;44552.00;0.15;77.76;0.00;0.00;0.62;;;;;15.00;1.00;;;;;;2288560;60;1721;-85
2020/12/22 03:10:06;0.00;0.00;0.62;0.00;0.00;0.62;;;;;15.10;1.00;;;;;;2288623;60;921;-85
2020/12/22 03:12:33;0.00;0.00;0.62;0.00;0.00;0.62;;;;;15.10;1.00;;;;;;2288588;60;1106;-85
2020/12/22 03:15:00;0.00;0.00;0.62;0.00;0.00;0.62;;;;;14.70;1.00;;;;;;2288581;60;1141;-84
2020/12/22 03:17:26;96236.00;0.32;167.07;0.00;0.00;0.62;;;;;14.50;1.00;;;;;;2288531;60;1413;-85
2020/12/22 03:19:53;0.00;0.00;0.62;0.00;0.00;0.62;;;;;14.20;1.00;;;;;;2288585;60;950;-85
2020/12/22 03:22:19;0.00;0.00;0.62;0.00;0.00;0.62;;;;;14.00;1.20;;;;;;2288551;60;1106;-85
2020/12/22 03:24:46;0.00;0.00;0.62;0.00;0.00;0.62;;;;;13.90;1.70;;;;;;2288496;60;1939;-84
2020/12/22 03:27:12;0.00;0.00;0.62;0.00;0.00;0.62;;;;;13.70;1.60;;;;;;2288535;60;1483;-83
2020/12/22 03:29:39;0.00;0.00;0.62;0.00;0.00;0.62;;;;;13.50;2.40;;;;;;2288554;60;1102;-84
2020/12/22 03:32:06;0.00;0.00;0.62;0.00;0.00;0.62;;;;;13.50;2.30;;;;;;2288546;60;1133;-83
2020/12/22 03:34:32;0.00;0.00;0.62;0.00;0.00;0.62;;;;;13.40;2.90;;;;;;2288568;60;1090;-84
2020/12/22 03:37:00;0.00;0.00;0.62;0.00;0.00;0.62;;;;;13.40;3.00;;;;;;2288515;60;1307;-83
2020/12/22 03:39:26;46710.00;0.16;81.50;0.00;0.00;0.62;;;;;13.50;3.10;;;;;;2288549;60;1024;-83
2020/12/22 03:41:53;0.00;0.00;0.62;0.00;0.00;0.62;;;;;13.70;2.60;;;;;;2288519;60;1138;-83
2020/12/22 03:44:19;0.00;0.00;0.62;0.00;0.00;0.62;;;;;14.00;1.70;;;;;;2288492;60;2000;-85
2020/12/22 03:46:49;21714.00;0.07;38.24;0.00;0.00;0.62;;;;;13.90;1.70;;;;;;2288488;60;1308;-83
2020/12/22 03:49:17;42654.00;0.14;74.48;0.00;0.00;0.62;;;;;13.70;1.90;;;;;;2288531;60;1064;-85
2020/12/22 03:51:44;0.00;0.00;0.62;0.00;0.00;0.62;;;;;13.90;1.70;;;;;;2288412;60;1861;-84
2020/12/22 03:54:11;0.00;0.00;0.62;0.00;0.00;0.62;;;;;13.90;1.70;;;;;;2288497;60;1149;-85
2020/12/22 03:56:38;0.00;0.00;0.62;0.00;0.00;0.62;;;;;14.00;1.70;;;;;;2288447;60;1383;-84
2020/12/22 03:59:04;0.00;0.00;0.62;0.00;0.00;0.62;;;;;13.80;1.70;;;;;;2288426;60;1688;-83
2020/12/22 04:01:31;0.00;0.00;0.62;0.00;0.00;0.62;;;;;13.90;1.70;;;;;;2288459;60;1141;-84
2020/12/22 04:03:58;0.00;0.00;0.62;0.00;0.00;0.62;;;;;13.60;2.50;;;;;;2288432;60;1708;-84
2020/12/22 04:06:25;21027.00;0.07;37.05;0.00;0.00;0.62;;;;;13.50;3.00;;;;;;2288357;60;2001;-83
2020/12/22 04:08:53;34170.00;0.11;59.80;0.00;0.00;0.62;;;;;13.50;2.80;;;;;;2288471;60;1019;-83
2020/12/22 04:11:20;0.00;0.00;0.62;0.00;0.00;0.62;;;;;13.40;2.70;;;;;;2288453;60;1097;-83
2020/12/22 04:13:46;14847.00;0.05;26.35;0.00;0.00;0.62;;;;;13.40;3.00;;;;;;2288429;60;1113;-83
2020/12/22 04:16:13;5817.00;0.02;10.70;0.00;0.00;0.62;;;;;13.50;2.90;;;;;;2288403;60;1304;-83
2020/12/22 04:18:40;0.00;0.00;0.62;0.00;0.00;0.62;;;;;13.60;2.20;;;;;;2288385;60;1114;-82
2020/12/22 04:21:08;1624.00;0.01;3.43;0.00;0.00;0.62;;;;;13.80;1.70;;;;;;2288433;60;1121;-83
2020/12/22 04:23:34;0.00;0.00;0.62;0.00;0.00;0.62;;;;;13.70;2.30;;;;;;2288443;60;1000;-83
2020/12/22 04:26:01;6578.00;0.02;12.02;0.00;0.00;0.62;;;;;13.70;2.20;;;;;;2288359;60;1923;-83
2020/12/22 04:28:27;8569.00;0.03;15.47;0.00;0.00;0.62;;;;;13.60;3.00;;;;;;2288416;60;1038;-83
2020/12/22 04:30:54;0.00;0.00;0.62;0.00;0.00;0.62;;;;;13.50;3.50;;;;;;2288424;60;1580;-83
2020/12/22 04:33:20;292718.00;0.98;505.40;86483.00;0.29;150.23;;;;;13.50;3.00;;;;;;2289100;60;1184;-83
2020/12/22 04:35:47;0.00;0.00;0.62;0.00;0.00;0.62;;;;;13.60;3.00;;;;;;2289077;60;1288;-84
2020/12/22 04:38:14;590.00;0.00;1.64;0.00;0.00;0.62;;;;;13.60;3.10;;;;;;2289100;60;1070;-83
2020/12/22 04:40:41;0.00;0.00;0.62;0.00;0.00;0.62;;;;;13.70;3.10;;;;;;2289107;60;1019;-83
2020/12/22 04:43:07;134260.00;0.45;232.67;37897.00;0.13;66.25;;;;;14.10;1.80;;;;;;2289100;60;1135;-85
2020/12/22 04:45:34;0.00;0.00;0.62;0.00;0.00;0.62;;;;;14.20;1.60;;;;;;2289055;60;1914;-84
2020/12/22 04:48:01;0.00;0.00;0.62;0.00;0.00;0.62;;;;;14.10;1.80;;;;;;2289073;60;1134;-84
2020/12/22 04:50:28;0.00;0.00;0.62;0.00;0.00;0.62;;;;;14.30;1.00;;;;;;2280375;61;1066;-84
2020/12/22 04:52:54;592.00;0.00;1.65;0.00;0.00;0.62;;;;;14.30;1.00;;;;;;2280420;61;1028;-83
2020/12/22 04:55:22;0.00;0.00;0.62;0.00;0.00;0.62;;;;;14.50;1.00;;;;;;2280457;61;1075;-84
2020/12/22 04:57:50;73786.00;0.25;128.30;0.00;0.00;0.62;;;;;14.30;1.00;;;;;;2280385;61;1413;-84
2020/12/22 05:00:17;0.00;0.00;0.62;0.00;0.00;0.62;;;;;14.20;1.70;;;;;;2280323;61;1644;-85
2020/12/22 05:02:45;0.00;0.00;0.62;0.00;0.00;0.62;;;;;14.30;1.50;;;;;;2280351;61;1580;-84
2020/12/22 05:05:12;101992.00;0.34;177.01;35589.00;0.12;62.26;;;;;14.30;1.00;;;;;;2280378;61;1998;-85
2020/12/22 05:07:40;888.00;0.00;2.16;0.00;0.00;0.62;;;;;14.50;1.00;;;;;;2281656;60;1411;-84
2020/12/22 05:10:10;0.00;0.00;0.62;0.00;0.00;0.62;;;;;14.70;1.00;;;;;;2289001;60;1069;-84
2020/12/22 05:12:40;1762.00;0.01;3.67;0.00;0.00;0.62;;;;;14.50;1.00;;;;;;2288989;60;1055;-84
2020/12/22 05:15:07;0.00;0.00;0.62;0.00;0.00;0.62;;;;;14.10;2.20;;;;;;2288923;60;1015;-84
2020/12/22 05:17:41;0.00;0.00;0.62;0.00;0.00;0.62;;;;;14.20;1.40;;;;;;2288884;60;1419;-84
2020/12/22 05:20:11;0.00;0.00;0.62;0.00;0.00;0.62;;;;;14.20;1.10;;;;;;2289001;60;1062;-84
2020/12/22 05:22:38;0.00;0.00;0.62;0.00;0.00;0.62;;;;;14.10;1.80;;;;;;2288994;60;1080;-85
2020/12/22 05:25:05;109621.00;0.37;190.18;0.00;0.00;0.62;;;;;14.00;1.70;;;;;;2288940;60;1911;-85
2020/12/22 05:27:32;25963.00;0.09;45.59;0.00;0.00;0.62;;;;;14.00;1.70;;;;;;2288922;60;1325;-84
2020/12/22 05:30:02;0.00;0.00;0.62;0.00;0.00;0.62;;;;;14.20;1.90;;;;;;2288978;60;1016;-85
2020/12/22 05:32:30;7724.00;0.03;14.01;0.00;0.00;0.62;;;;;14.20;1.30;;;;;;2278419;60;1007;-85
2020/12/22 05:34:56;0.00;0.00;0.62;0.00;0.00;0.62;;;;;14.00;1.80;;;;;;2288935;60;1142;-84
2020/12/22 05:37:24;0.00;0.00;0.62;0.00;0.00;0.62;;;;;14.00;1.80;;;;;;2278396;60;1368;-85
2020/12/22 05:39:51;0.00;0.00;0.62;0.00;0.00;0.62;;;;;14.10;1.40;;;;;;2288885;60;1093;-84
2020/12/22 05:42:18;0.00;0.00;0.62;0.00;0.00;0.62;;;;;14.10;1.80;;;;;;2288597;60;1558;-84
2020/12/22 05:44:48;0.00;0.00;0.62;0.00;0.00;0.62;;;;;14.30;1.00;;;;;;2288726;60;1994;-85
2020/12/22 05:47:17;0.00;0.00;0.62;0.00;0.00;0.62;;;;;14.30;1.00;;;;;;2288829;60;1293;-85
2020/12/22 05:49:52;0.00;0.00;0.62;0.00;0.00;0.62;;;;;14.40;1.00;;;;;;2288873;60;1049;-85
2020/12/22 05:52:22;25537.00;0.09;44.86;0.00;0.00;0.62;;;;;14.40;1.00;;;;;;2288891;60;1016;-85
2020/12/22 05:54:50;0.00;0.00;0.62;0.00;0.00;0.62;;;;;14.50;1.00;;;;;;2288809;60;1656;-85
2020/12/22 05:57:20;58900.00;0.20;102.58;0.00;0.00;0.62;;;;;14.70;1.00;;;;;;2288825;60;1408;-85
2020/12/22 05:59:47;0.00;0.00;0.62;0.00;0.00;0.62;;;;;14.70;1.00;;;;;;2288802;60;1101;-85
2020/12/22 06:02:25;2008.00;0.01;4.10;0.00;0.00;0.62;;;;;14.90;1.00;;;;;;2288856;60;1063;-85
2020/12/22 06:04:52;0.00;0.00;0.62;0.00;0.00;0.62;;;;;14.70;1.00;;;;;;2288831;60;2010;-85
2020/12/22 06:07:20;84666.00;0.28;147.10;0.00;0.00;0.62;;;;;14.50;1.00;;;;;;2288765;60;1399;-85
2020/12/22 06:09:47;124512.00;0.42;215.86;0.00;0.00;0.62;;;;;14.40;1.00;;;;;;2288805;60;1002;-85
2020/12/22 06:12:13;173918.00;0.58;301.02;0.00;0.00;0.62;;;;;14.30;1.00;;;;;;2288797;60;1038;-85
2020/12/22 06:14:43;18741.00;0.06;33.09;0.00;0.00;0.62;;;;;14.70;1.00;;;;;;2288788;60;1133;-85
2020/12/22 06:17:11;110968.00;0.37;192.50;0.00;0.00;0.62;;;;;14.90;1.00;;;;;;2288717;60;1376;-85
2020/12/22 06:19:40;121776.00;0.41;211.15;0.00;0.00;0.62;;;;;15.00;1.00;;;;;;2288737;60;1110;-85
2020/12/22 06:22:09;52414.00;0.17;91.36;0.00;0.00;0.62;;;;;14.80;1.00;;;;;;2288474;60;1000;-85
2020/12/22 06:24:36;52309.00;0.17;91.18;0.00;0.00;0.62;;;;;14.80;1.00;;;;;;2288732;60;2004;-84
2020/12/22 06:27:03;149274.00;0.50;258.56;10436.00;0.03;18.70;;;;;14.90;1.00;;;;;;2288714;60;1397;-85
2020/12/22 06:29:30;23733.00;0.08;41.73;0.00;0.00;0.62;;;;;14.80;1.00;;;;;;2288580;60;983;-85
2020/12/22 06:32:25;47800.00;0.16;83.38;0.00;0.00;0.62;;;;;14.60;1.00;;;;;;2288708;60;992;-85
2020/12/22 06:34:54;0.00;0.00;0.62;0.00;0.00;0.62;;;;;14.70;1.00;;;;;;2288755;60;1125;-85
2020/12/22 06:37:39;0.00;0.00;0.62;0.00;0.00;0.62;;;;;14.50;1.00;;;;;;2288669;60;1377;-85
2020/12/22 06:40:07;0.00;0.00;0.62;0.00;0.00;0.62;;;;;14.70;1.00;;;;;;2288711;60;1012;-85
2020/12/22 06:42:47;0.00;0.00;0.62;0.00;0.00;0.62;;;;;14.40;1.00;;;;;;2288656;60;1845;-85
2020/12/22 06:45:28;0.00;0.00;0.62;0.00;0.00;0.62;;;;;14.60;1.00;;;;;;2288648;60;1994;-85
2020/12/22 06:47:56;25538.00;0.09;44.86;0.00;0.00;0.62;;;;;14.80;1.00;;;;;;2288618;60;1695;-85
2020/12/22 06:50:40;97810.00;0.33;169.79;0.00;0.00;0.62;;;;;14.80;1.00;;;;;;2288699;60;994;-85
2020/12/22 06:53:07;0.00;0.00;0.62;0.00;0.00;0.62;;;;;14.70;1.00;;;;;;2288689;60;1125;-85
2020/12/22 06:55:50;0.00;0.00;0.62;0.00;0.00;0.62;;;;;14.60;1.00;;;;;;2288559;60;1791;-85
2020/12/22 06:58:36;202666.00;0.68;350.51;0.00;0.00;0.62;;;;;14.70;1.00;;;;;;2288684;60;1030;-85
2020/12/22 07:01:33;87768.00;0.29;152.45;0.00;0.00;0.62;;;;;14.90;1.00;;;;;;2288614;60;1722;-85
2020/12/22 07:04:17;142042.00;0.47;246.09;5654.00;0.02;10.42;;;;;14.90;1.00;;;;;;2288649;60;1034;-86
2020/12/22 07:06:51;0.00;0.00;0.62;0.00;0.00;0.62;;;;;14.70;1.00;;;;;;2288565;60;1924;-85
2020/12/22 07:09:19;13753.00;0.05;24.45;0.00;0.00;0.62;;;;;14.70;1.00;;;;;;2288624;60;1210;-84
2020/12/22 07:11:46;7713.00;0.03;13.99;0.00;0.00;0.62;;;;;14.80;1.00;;;;;;2288556;60;1076;-85
2020/12/22 07:14:17;74044.00;0.25;128.75;0.00;0.00;0.62;;;;;14.80;1.00;;;;;;2288540;60;1013;-85
2020/12/22 07:17:05;0.00;0.00;0.62;0.00;0.00;0.62;;;;;15.10;1.00;;;;;;2288581;60;1382;-86
2020/12/22 07:19:33;0.00;0.00;0.62;0.00;0.00;0.62;;;;;15.30;1.00;;;;;;2287319;60;1179;-84
2020/12/22 07:22:02;0.00;0.00;0.62;0.00;0.00;0.62;;;;;15.00;1.00;;;;;;2288628;60;1017;-85
2020/12/22 07:24:30;19228.00;0.06;33.93;0.00;0.00;0.62;;;;;14.80;1.00;;;;;;2288620;60;1922;-85
2020/12/22 07:26:58;5518.00;0.02;10.18;0.00;0.00;0.62;;;;;14.50;1.00;;;;;;2288542;60;1297;-88
2020/12/22 07:29:25;101597.00;0.34;176.33;0.00;0.00;0.62;;;;;14.50;1.00;;;;;;2288549;60;1636;-86
2020/12/22 07:31:51;143675.00;0.48;248.91;0.00;0.00;0.62;;;;;14.40;1.00;;;;;;2288568;60;1050;-85
2020/12/22 07:34:19;13388.00;0.04;23.82;0.00;0.00;0.62;;;;;14.50;1.00;;;;;;2288565;60;926;-84
2020/12/22 07:36:46;56003.00;0.19;97.57;0.00;0.00;0.62;;;;;14.60;1.00;;;;;;2288487;60;1637;-84
2020/12/22 07:39:17;16025.00;0.05;28.39;0.00;0.00;0.62;;;;;14.60;1.00;;;;;;2288512;60;981;-84
2020/12/22 07:41:45;0.00;0.00;0.62;0.00;0.00;0.62;;;;;14.60;1.00;;;;;;2288580;60;1025;-85
2020/12/22 07:44:13;162017.00;0.54;280.51;0.00;0.00;0.62;;;;;14.50;1.00;;;;;;2288470;60;1076;-84
2020/12/22 07:46:41;46273.00;0.15;80.74;0.00;0.00;0.62;;;;;14.60;1.00;;;;;;2288468;60;2010;-84
2020/12/22 07:49:10;54334.00;0.18;94.68;0.00;0.00;0.62;;;;;14.70;1.00;;;;;;2288497;60;1118;-84
2020/12/22 07:51:41;116353.00;0.39;201.79;0.00;0.00;0.62;;;;;14.60;1.00;;;;;;2288447;60;1761;-85
2020/12/22 07:54:07;121126.00;0.40;210.02;0.00;0.00;0.62;;;;;14.50;1.00;;;;;;2288444;60;925;-85
2020/12/22 08:01:43;366764.00;1.22;632.67;0.00;0.00;0.62;;;;;14.60;1.00;;;;;;2286804;61;1003;-91
2020/12/22 08:04:15;161981.00;0.54;280.45;0.00;0.00;0.62;;;;;14.40;1.60;;;;;;2284158;60;1049;-90
2020/12/22 08:06:43;300304.00;1.00;518.44;0.00;0.00;0.62;;;;;14.50;1.60;;;;;;2284357;60;1955;-88
2020/12/22 08:09:09;310409.00;1.03;535.81;0.00;0.00;0.62;;;;;14.60;1.00;;;;;;2284717;60;1766;-90
2020/12/22 08:11:36;368790.00;1.23;636.16;0.00;0.00;0.62;;;;;14.80;1.00;;;;;;2284739;60;1598;-90
2020/12/22 08:14:05;385254.00;1.28;664.46;0.00;0.00;0.62;;;;;14.90;1.00;;;;;;2284738;60;1628;-88
2020/12/22 08:21:42;244228.00;0.81;422.02;0.00;0.00;0.62;;;;;14.70;1.00;;;;;;2286502;60;1227;-90
2020/12/22 08:24:09;324806.00;1.08;560.56;0.00;0.00;0.62;;;;;14.70;1.00;;;;;;2284673;60;1583;-90
2020/12/22 08:26:35;343648.00;1.15;592.94;0.00;0.00;0.62;;;;;14.80;1.00;;;;;;2284678;60;2008;-90
2020/12/22 08:29:03;252465.00;0.84;436.19;0.00;0.00;0.62;;;;;15.00;1.00;;;;;;2284671;60;909;-88
2020/12/22 08:31:35;179165.00;0.60;310.05;0.00;0.00;0.62;;;;;15.20;1.00;;;;;;2284686;60;1067;-90
2020/12/22 08:34:07;307189.00;1.02;530.28;0.00;0.00;0.62;;;;;15.10;1.00;;;;;;2284657;60;1572;-90
2020/12/22 08:36:39;187179.00;0.62;323.85;0.00;0.00;0.62;;;;;15.20;1.00;;;;;;2284738;60;1364;-91
2020/12/22 08:39:22;406319.00;1.35;700.67;0.00;0.00;0.62;;;;;15.10;1.00;;;;;;2284656;60;1592;-91
2020/12/22 08:41:51;378756.00;1.26;653.29;0.00;0.00;0.62;;;;;14.80;1.00;;;;;;2284657;60;1611;-90
2020/12/22 08:44:19;278838.00;0.93;481.54;0.00;0.00;0.62;;;;;15.10;1.00;;;;;;2284671;60;1090;-89
2020/12/22 08:46:46;335242.00;1.12;578.50;0.00;0.00;0.62;;;;;15.10;1.00;;;;;;2284523;60;1999;-89
2020/12/22 08:49:24;293804.00;0.98;507.27;0.00;0.00;0.62;;;;;15.00;1.00;;;;;;2284639;60;1680;-89
2020/12/22 09:15:26;811431.00;2.70;1401.07;0.00;0.00;0.62;;;;;15.10;1.00;;;;;;2286167;60;1251;-90
2020/12/22 09:17:53;381848.00;1.27;658.60;99527.00;0.33;172.76;;;;;15.00;1.00;;;;;;2284358;60;1712;-92
2020/12/22 09:20:35;;;;;;;;;;;;;;;;;;;;;
2020/12/22 09:23:13;380434.00;1.27;656.17;0.00;0.00;0.62;;;;;15.10;1.00;;;;;;2284488;60;1273;-90
2020/12/22 10:30:29;792685.00;2.64;1368.37;70186.00;0.23;122.08;;;;;15.00;2.50;;;;;;2285872;60;1183;-87
2020/12/22 10:32:55;750910.00;2.50;1295.64;135913.00;0.45;235.52;;;;;15.20;2.00;;;;;;2284327;60;1004;-88
2020/12/22 10:35:22;648692.00;2.16;1118.37;75543.00;0.25;131.34;;;;;15.20;2.60;;;;;;2284238;60;1750;-87
2020/12/22 10:37:48;545033.00;1.82;939.40;81881.00;0.27;142.29;;;;;15.30;2.10;;;;;;2284223;60;1503;-88
2020/12/22 10:40:15;530689.00;1.77;914.68;88427.00;0.29;153.59;;;;;15.20;2.40;;;;;;2284382;60;1006;-88
2020/12/22 10:43:08;;;;;;;;;;;;;;;;;;;;;
2020/12/22 10:48:35;393094.00;1.31;677.93;0.00;0.00;0.62;;;;;15.40;1.00;;;;;;2283086;60;1429;-89
2020/12/22 10:51:21;399242.00;1.33;688.50;0.00;0.00;0.62;;;;;15.70;1.00;;;;;;2284188;60;1653;-90
2020/12/22 11:06:41;406821.00;1.36;701.53;0.00;0.00;0.62;;;;;15.90;1.00;;;;;;2285844;60;1966;-89
2020/12/22 11:09:08;148874.00;0.50;257.87;0.00;0.00;0.62;;;;;15.50;1.00;;;;;;2284241;60;1734;-89
2020/12/22 11:11:35;391130.00;1.30;674.56;100263.00;0.33;174.03;;;;;15.30;1.00;;;;;;2284157;60;1608;-91
2020/12/22 11:14:08;389245.00;1.30;671.32;0.00;0.00;0.62;;;;;15.40;1.00;;;;;;2284235;60;1748;-91
2020/12/22 11:30:11;796337.00;2.65;1374.74;0.00;0.00;0.62;;;;;16.10;1.00;;;;;;2294121;60;1351;-89
2020/12/22 11:32:43;104656.00;0.35;181.61;0.00;0.00;0.62;;;;;16.00;1.00;;;;;;2292356;60;1087;-90
2020/12/22 11:35:25;291288.00;0.97;502.94;0.00;0.00;0.62;;;;;16.00;1.00;;;;;;2292318;60;1619;-89
2020/12/22 11:37:52;397476.00;1.32;685.47;0.00;0.00;0.62;;;;;15.80;1.00;;;;;;2291921;60;1665;-89
2020/12/22 11:40:19;367152.00;1.22;633.34;0.00;0.00;0.62;;;;;15.90;1.00;;;;;;2292603;60;995;-89
2020/12/22 11:42:55;456519.00;1.52;787.00;19167.00;0.06;33.83;;;;;15.60;1.00;;;;;;2292995;60;1630;-89
2020/12/22 12:24:05;997618.00;3.33;1728.25;0.00;0.00;0.62;;;;;15.70;1.00;;;;;;2286280;60;1170;-92
2020/12/22 12:26:32;260299.00;0.87;449.66;0.00;0.00;0.62;;;;;15.80;1.00;;;;;;2284695;60;1919;-90
2020/12/22 12:28:58;322933.00;1.08;557.34;0.00;0.00;0.62;;;;;15.90;1.20;;;;;;2284766;60;1586;-91
2020/12/22 12:31:29;581842.00;1.94;1002.88;87405.00;0.29;151.83;;;;;15.70;2.10;;;;;;2284748;60;944;-92
2020/12/22 12:33:58;347681.00;1.16;599.88;57586.00;0.19;100.30;;;;;16.00;1.30;;;;;;2284625;60;1669;-92
2020/12/22 12:36:25;393888.00;1.31;679.30;69285.00;0.23;120.52;;;;;16.50;1.00;;;;;;2284580;60;1678;-91
2020/12/22 12:38:52;301128.00;1.00;519.86;0.00;0.00;0.62;;;;;16.40;1.00;;;;;;2284667;60;1600;-91
2020/12/22 12:41:25;259349.00;0.86;448.03;0.00;0.00;0.62;;;;;16.50;1.00;;;;;;2284500;60;1586;-90
2020/12/22 12:43:52;179994.00;0.60;311.48;0.00;0.00;0.62;;;;;16.70;1.00;;;;;;2284710;60;1018;-91
2020/12/22 12:46:19;356804.00;1.19;615.56;0.00;0.00;0.62;;;;;16.20;1.00;;;;;;2284598;60;1925;-91
2020/12/22 12:51:30;545114.00;1.82;939.54;79995.00;0.27;139.03;;;;;16.30;1.00;;;;;;2283912;60;1387;-91
2020/12/22 12:54:08;257082.00;0.86;444.13;15077.00;0.05;26.74;;;;;16.10;1.60;;;;;;2284609;60;1171;-92
2020/12/22 12:56:42;458384.00;1.53;790.20;35562.00;0.12;62.21;;;;;15.80;2.40;;;;;;2284556;60;1619;-91
2020/12/22 12:59:10;385405.00;1.28;664.72;91081.00;0.30;158.17;;;;;16.00;2.70;;;;;;2284566;60;1750;-92
2020/12/22 13:01:48;176069.00;0.59;304.72;0.00;0.00;0.62;;;;;16.00;2.80;;;;;;2284731;60;1018;-90
2020/12/22 13:04:15;324928.00;1.08;560.77;32808.00;0.11;57.44;;;;;15.90;2.30;;;;;;2284672;60;1443;-90
2020/12/22 13:06:53;447960.00;1.49;772.27;40813.00;0.14;71.29;;;;;16.00;2.00;;;;;;2284505;60;1943;-90
2020/12/22 13:09:21;464720.00;1.55;801.10;0.00;0.00;0.62;;;;;16.10;2.10;;;;;;2284609;60;1624;-91
2020/12/22 13:11:57;145933.00;0.49;252.80;0.00;0.00;0.62;;;;;15.80;3.00;;;;;;2284544;60;1457;-90